Crestmore, California
Current Conditions -  °F | °C
As of 7:53 PM on Sunday 25 Jan 2015 (Local Time) from KRAL Reporting Station
Broken Clouds Broken Clouds  
Wind Chill: 67°   Ceiling: 20000
Heat Index: 67°   Visibility: 10mi
Dew Point: 31°   Wind: 5mph
Humidity: 26%   Direction: 90°E
Pressure: 30.05"   Gusts: NA
Location:  34.0579°N, 117.395°W
Report Text: KRAL 260353Z 09004KT 10SM BKN200 19/M01 A3005 RMK AO2 SLP163 T01941006
Loading
Personal Weather Stations






























Interactive Weather Map New forecast layout! Learn more

10-Day Weather Forecast

Advertisements
Track Severe Weather on mobile